Terminal Aerodrome Forecast
Issued by NWS Portland, ME

Home | Current Version | Previous Version | Text Only | Print | Product List | Glossary On
Versions: 1 2 3 4 5 6 7 8 9 10 11 12 13 14 15 16 17 18 19 20 21 22 23
784
FTUS41 KGYX 052003 AAA
TAFPWM
TAF AMD
KPWM 052003Z 0520/0618 03005KT 3/4SM -SN BKN009 OVC015
      TEMPO 0520/0521 1 1/2SM -SN SCT009 OVC025
     FM052100 32005KT 4SM -SHSN BKN050 OVC080
     FM060300 31006KT P6SM SKC=

USA.gov is the U.S. government's official web portal to all federal, state and local government web resources and services.